Terminal Aerodrome Forecast
Issued by NWS

Home | Current Version | Previous Version | Text Only | Print | Product List | Glossary On
Versions: 1 2 3 4 5 6 7 8 9 10 11 12 13 14 15 16 17 18 19
000
FTUS43 KICT 201722
TAFHUT
TAF
KHUT 201722Z 2018/2118 35016G24KT P6SM OVC020
     FM202100 36014G19KT P6SM OVC070
     FM210000 36012KT P6SM SCT250
     FM210900 01012KT P6SM BKN070=

USA.gov is the U.S. government's official web portal to all federal, state and local government web resources and services.